createdAt,value
2019-02-25T00:01:55.448Z,58.97
2019-02-25T00:04:24.253Z,61.32
2019-02-25T00:06:53.122Z,60.05
2019-02-25T00:09:22.010Z,57.13
2019-02-25T00:11:50.932Z,53.44
2019-02-25T00:14:19.818Z,58.07
2019-02-25T00:16:48.738Z,53.75
2019-02-25T00:19:17.570Z,52.15
2019-02-25T00:21:46.357Z,53.40
2019-02-25T00:24:15.150Z,54.02
2019-02-25T00:26:43.984Z,54.32
2019-02-25T00:29:12.730Z,54.71
2019-02-25T00:31:41.515Z,56.13
2019-02-25T00:34:10.376Z,56.84
2019-02-25T00:36:39.174Z,55.67
2019-02-25T00:39:08.566Z,55.32
2019-02-25T00:41:37.360Z,56.00
2019-02-25T00:44:06.215Z,57.01
2019-02-25T00:46:35.066Z,57.45
2019-02-25T00:49:04.074Z,57.65
2019-02-25T00:51:32.851Z,56.05
2019-02-25T00:54:02.081Z,55.66
2019-02-25T00:56:31.805Z,57.58
2019-02-25T00:59:00.600Z,55.44
2019-02-25T01:01:29.466Z,54.13
2019-02-25T01:03:58.329Z,54.75
2019-02-25T01:06:27.257Z,56.31
2019-02-25T01:08:56.127Z,55.45
2019-02-25T01:11:24.996Z,54.74
2019-02-25T01:13:53.884Z,54.74
2019-02-25T01:16:22.668Z,55.33
2019-02-25T01:18:51.482Z,52.36
2019-02-25T01:21:20.290Z,52.34
2019-02-25T01:23:49.144Z,54.51
2019-02-25T01:26:17.887Z,51.66
2019-02-25T01:28:46.692Z,53.27
2019-02-25T01:31:15.490Z,53.71
2019-02-25T01:33:44.395Z,54.34
2019-02-25T01:36:13.167Z,56.68
2019-02-25T01:38:41.984Z,57.30
2019-02-25T01:41:10.936Z,56.52
2019-02-25T01:43:39.731Z,56.74
2019-02-25T01:46:08.509Z,57.36
2019-02-25T01:48:37.377Z,58.06
2019-02-25T01:51:06.124Z,57.57
2019-02-25T01:53:34.928Z,55.34
2019-02-25T01:56:04.236Z,56.21
2019-02-25T01:58:34.043Z,56.12
2019-02-25T02:01:02.854Z,59.94
2019-02-25T02:03:31.848Z,57.46
2019-02-25T02:06:00.653Z,59.45
2019-02-25T02:08:29.433Z,56.67
2019-02-25T02:10:58.205Z,57.40
2019-02-25T02:13:27.063Z,55.67
2019-02-25T02:15:55.955Z,57.09
2019-02-25T02:18:24.746Z,56.74
2019-02-25T02:20:53.549Z,57.58
2019-02-25T02:23:22.339Z,59.49
2019-02-25T02:25:51.138Z,59.99
2019-02-25T02:28:19.933Z,59.11
2019-02-25T02:30:48.857Z,58.41
2019-02-25T02:33:17.585Z,60.48
2019-02-25T02:35:46.389Z,62.40
2019-02-25T02:38:15.246Z,65.41
2019-02-25T02:40:44.170Z,65.84
2019-02-25T02:43:12.965Z,60.94
2019-02-25T02:45:48.623Z,61.23
2019-02-25T02:48:21.500Z,61.09
2019-02-25T02:50:50.281Z,62.36
2019-02-25T02:53:19.105Z,64.60
2019-02-25T02:55:47.886Z,66.73
2019-02-25T02:58:16.663Z,66.63
2019-02-25T03:00:45.523Z,66.79
2019-02-25T03:03:14.304Z,67.76
2019-02-25T03:05:43.265Z,69.81
2019-02-25T03:08:12.027Z,71.06
2019-02-25T03:10:41.072Z,71.86
2019-02-25T03:13:09.856Z,71.34
2019-02-25T03:15:38.653Z,69.80
2019-02-25T03:18:07.608Z,69.21
2019-02-25T03:20:37.431Z,68.00
2019-02-25T03:23:06.332Z,67.11
2019-02-25T03:25:35.137Z,63.44
2019-02-25T03:28:03.942Z,62.20
2019-02-25T03:30:32.801Z,63.23
2019-02-25T03:33:01.646Z,63.45
2019-02-25T03:35:30.412Z,65.36
2019-02-25T03:37:59.223Z,66.23
2019-02-25T03:40:28.199Z,67.49
2019-02-25T03:42:57.060Z,67.58
2019-02-25T03:45:25.959Z,67.65
2019-02-25T03:47:54.765Z,68.00
2019-02-25T03:50:23.573Z,68.78
2019-02-25T03:52:52.381Z,68.85
2019-02-25T03:55:21.434Z,69.16
2019-02-25T03:57:50.565Z,69.89
2019-02-25T04:00:21.102Z,69.16
2019-02-25T04:02:49.981Z,68.95
2019-02-25T04:05:19.127Z,69.45
2019-02-25T04:07:48.173Z,67.87
2019-02-25T04:10:17.034Z,70.02
2019-02-25T04:12:45.839Z,67.79
2019-02-25T04:15:17.862Z,64.54
2019-02-25T04:17:46.880Z,65.23
2019-02-25T04:20:16.171Z,65.71
2019-02-25T04:22:45.060Z,63.24
2019-02-25T04:25:13.987Z,63.23
2019-02-25T04:27:42.950Z,64.26
2019-02-25T04:30:13.984Z,62.28
2019-02-25T04:32:42.812Z,61.56
2019-02-25T04:35:12.585Z,60.93
2019-02-25T04:37:41.639Z,61.04
2019-02-25T04:40:12.643Z,59.80
2019-02-25T04:42:41.532Z,59.02
2019-02-25T04:45:13.409Z,57.70
2019-02-25T04:47:42.491Z,57.98
2019-02-25T04:50:12.075Z,59.00
2019-02-25T04:52:41.477Z,60.09
2019-02-25T04:55:11.708Z,61.14
2019-02-25T04:57:41.444Z,61.67
2019-02-25T05:00:12.841Z,62.78
2019-02-25T05:02:41.787Z,63.95
2019-02-25T05:05:10.670Z,64.94
2019-02-25T05:07:39.551Z,65.49
2019-02-25T05:10:09.474Z,65.62
2019-02-25T05:12:39.523Z,65.45
2019-02-25T05:15:10.153Z,64.49
2019-02-25T05:17:38.988Z,59.98
2019-02-25T05:20:08.076Z,58.69
2019-02-25T05:22:37.660Z,55.09
2019-02-25T05:25:06.990Z,57.69
2019-02-25T05:27:35.807Z,60.94
2019-02-25T05:30:05.495Z,62.10
2019-02-25T05:32:34.367Z,63.67
2019-02-25T05:35:03.225Z,64.92
2019-02-25T05:37:32.095Z,65.72
2019-02-25T05:40:00.880Z,66.69
2019-02-25T05:42:29.667Z,68.41
2019-02-25T05:44:58.467Z,69.15
2019-02-25T05:47:27.248Z,69.99
2019-02-25T05:49:56.041Z,70.32
2019-02-25T05:52:24.817Z,70.53
2019-02-25T05:54:53.616Z,67.61
2019-02-25T05:57:22.391Z,61.28
2019-02-25T05:59:51.178Z,58.19
2019-02-25T06:02:19.958Z,55.94
2019-02-25T06:04:48.817Z,56.09
2019-02-25T06:07:17.601Z,57.68
2019-02-25T06:09:46.393Z,63.38
2019-02-25T06:12:15.166Z,64.50
2019-02-25T06:14:44.030Z,67.70
2019-02-25T06:17:12.920Z,69.29
2019-02-25T06:19:41.793Z,70.07
2019-02-25T06:22:10.595Z,68.96
2019-02-25T06:24:39.496Z,69.43
2019-02-25T06:27:08.318Z,69.85
2019-02-25T06:29:37.176Z,69.72
2019-02-25T06:32:06.106Z,71.23
2019-02-25T06:34:34.912Z,71.17
2019-02-25T06:37:03.714Z,71.70
2019-02-25T06:39:32.605Z,72.19
2019-02-25T06:42:01.382Z,72.78
2019-02-25T06:44:30.185Z,72.33
2019-02-25T06:46:58.975Z,72.31
2019-02-25T06:49:27.790Z,72.01
2019-02-25T06:51:56.579Z,72.73
2019-02-25T06:54:25.426Z,73.21
2019-02-25T06:56:54.282Z,72.52
2019-02-25T06:59:23.077Z,73.18
2019-02-25T07:01:51.938Z,73.20
2019-02-25T07:04:39.757Z,73.35
2019-02-25T07:07:27.545Z,72.51
2019-02-25T07:10:18.120Z,71.55
2019-02-25T07:13:15.627Z,71.42
2019-02-25T07:15:50.195Z,70.93
2019-02-25T07:18:44.267Z,71.67
2019-02-25T07:21:18.018Z,71.06
2019-02-25T07:24:00.519Z,71.42
2019-02-25T07:26:51.358Z,71.12
2019-02-25T07:29:26.919Z,69.46
2019-02-25T07:32:03.594Z,68.23
2019-02-25T07:34:53.604Z,68.49
2019-02-25T07:37:40.422Z,67.47
2019-02-25T07:40:37.468Z,67.60
2019-02-25T07:43:17.954Z,67.17
2019-02-25T07:46:04.478Z,66.13
2019-02-25T07:48:42.451Z,65.33
2019-02-25T07:51:18.791Z,65.30
2019-02-25T07:53:57.194Z,65.79
2019-02-25T07:57:03.342Z,65.52
2019-02-25T07:59:54.269Z,64.60
2019-02-25T08:02:37.132Z,61.81
2019-02-25T08:05:12.701Z,61.52
2019-02-25T08:08:03.363Z,60.63
2019-02-25T08:10:54.004Z,62.68
2019-02-25T08:13:37.473Z,62.02
2019-02-25T08:16:37.850Z,59.60
2019-02-25T08:19:37.721Z,59.47
2019-02-25T08:22:31.609Z,59.07
2019-02-25T08:25:19.421Z,56.03
2019-02-25T08:28:08.021Z,54.15
2019-02-25T08:31:04.837Z,54.89
2019-02-25T08:33:55.501Z,52.36
2019-02-25T08:37:12.182Z,49.93
2019-02-25T08:39:50.873Z,50.12
2019-02-25T08:42:55.294Z,49.44
2019-02-25T08:45:33.251Z,49.47
2019-02-25T08:48:33.603Z,48.47
2019-02-25T08:51:02.525Z,48.06
2019-02-25T08:53:31.336Z,45.97
2019-02-25T08:56:00.242Z,46.65
2019-02-25T08:58:29.241Z,45.60
2019-02-25T09:00:58.143Z,44.10
2019-02-25T09:03:26.958Z,42.61
2019-02-25T09:05:55.760Z,40.38
2019-02-25T09:08:24.611Z,39.65
2019-02-25T09:10:53.396Z,40.79
2019-02-25T09:13:23.801Z,41.11
2019-02-25T09:15:53.017Z,41.19
2019-02-25T09:18:21.880Z,43.52
2019-02-25T09:20:50.714Z,44.01
2019-02-25T09:23:20.571Z,42.64
2019-02-25T09:25:49.355Z,42.16
2019-02-25T09:28:18.219Z,41.38
2019-02-25T09:30:46.990Z,40.21
2019-02-25T09:33:15.777Z,41.10
2019-02-25T09:35:44.721Z,41.12
2019-02-25T09:38:13.509Z,40.37
2019-02-25T09:40:42.642Z,40.05
2019-02-25T09:43:11.613Z,39.82
2019-02-25T09:45:40.504Z,38.75
2019-02-25T09:48:09.292Z,37.97
2019-02-25T09:50:38.065Z,39.13
2019-02-25T09:53:07.437Z,38.04
2019-02-25T09:55:36.336Z,36.96
2019-02-25T09:58:05.316Z,37.67
2019-02-25T10:00:34.239Z,36.33
2019-02-25T10:03:03.032Z,35.46
2019-02-25T10:05:31.835Z,35.30
2019-02-25T10:08:00.621Z,35.80
2019-02-25T10:10:29.405Z,35.25
2019-02-25T10:12:58.203Z,34.69
2019-02-25T10:15:26.992Z,33.95
2019-02-25T10:17:55.963Z,34.42
2019-02-25T10:20:24.904Z,34.17
2019-02-25T10:22:53.781Z,32.89
2019-02-25T10:25:22.642Z,32.50
2019-02-25T10:27:52.332Z,32.82
2019-02-25T10:30:21.395Z,31.56
2019-02-25T10:32:50.264Z,31.22
2019-02-25T10:35:19.749Z,30.53
2019-02-25T10:37:48.528Z,31.07
2019-02-25T10:40:21.615Z,31.05
2019-02-25T10:42:47.977Z,29.83
2019-02-25T10:45:17.317Z,30.19
2019-02-25T10:47:46.747Z,31.34
2019-02-25T10:50:17.083Z,30.33
2019-02-25T10:52:47.618Z,30.43
2019-02-25T10:55:20.467Z,30.72
2019-02-25T10:57:49.328Z,30.34
2019-02-25T11:00:18.744Z,30.13
2019-02-25T11:02:49.523Z,30.91
2019-02-25T11:05:19.095Z,30.93
2019-02-25T11:07:48.834Z,30.88
2019-02-25T11:10:28.043Z,30.90
2019-02-25T11:12:57.705Z,30.98
2019-02-25T11:15:28.753Z,31.03
2019-02-25T11:20:27.207Z,31.02
2019-02-25T11:22:55.913Z,31.50
2019-02-25T11:25:26.319Z,30.69
2019-02-25T11:27:55.496Z,32.03
2019-02-25T11:30:24.401Z,31.47
2019-02-25T11:32:56.165Z,31.32
2019-02-25T11:35:24.942Z,31.46
2019-02-25T11:37:56.641Z,31.64
2019-02-25T11:40:26.042Z,31.28
2019-02-25T11:42:55.683Z,32.79
2019-02-25T11:45:24.580Z,31.72
2019-02-25T11:47:53.451Z,32.32
2019-02-25T11:50:22.321Z,32.03
2019-02-25T11:52:51.166Z,31.73
2019-02-25T11:55:21.901Z,32.91
2019-02-25T11:57:50.534Z,31.66
2019-02-25T12:25:05.739Z,31.14
2019-02-25T12:27:34.599Z,32.29
2019-02-25T12:30:03.669Z,31.62
2019-02-25T12:32:32.558Z,31.56
2019-02-25T12:35:01.315Z,32.22
2019-02-25T12:37:30.162Z,31.72
2019-02-25T12:39:59.030Z,31.30
2019-02-25T12:42:27.879Z,31.17
2019-02-25T12:44:56.738Z,31.45
2019-02-25T12:47:26.330Z,31.72
2019-02-25T12:49:55.157Z,32.40
2019-02-25T12:52:23.982Z,32.27
2019-02-25T12:54:52.779Z,32.59
2019-02-25T12:57:21.570Z,32.81
2019-02-25T12:59:50.359Z,32.61
2019-02-25T13:02:19.141Z,33.13
2019-02-25T13:04:47.912Z,31.64
2019-02-25T13:07:16.684Z,32.07
2019-02-25T13:09:45.470Z,31.76
2019-02-25T13:12:14.239Z,31.71
2019-02-25T13:14:43.033Z,32.09
2019-02-25T13:17:11.882Z,32.40
2019-02-25T13:19:40.674Z,31.89
2019-02-25T13:22:09.452Z,31.98
2019-02-25T13:24:39.552Z,32.57
2019-02-25T13:27:09.152Z,31.61
2019-02-25T13:29:38.911Z,31.86
2019-02-25T13:32:07.762Z,31.87
2019-02-25T13:34:36.550Z,32.19
2019-02-25T13:37:05.631Z,32.24
2019-02-25T13:39:36.538Z,32.89
2019-02-25T13:42:05.105Z,32.58
2019-02-25T13:44:33.885Z,32.34
2019-02-25T13:47:02.685Z,32.31
2019-02-25T13:49:31.518Z,32.71
2019-02-25T13:52:00.500Z,32.65
2019-02-25T13:54:29.546Z,32.03
2019-02-25T13:56:58.591Z,32.07
2019-02-25T13:59:28.634Z,31.52
2019-02-25T14:01:58.704Z,32.14
2019-02-25T14:04:28.675Z,32.87
2019-02-25T14:06:57.789Z,32.87
2019-02-25T14:09:26.885Z,33.29
2019-02-25T14:11:55.856Z,33.42
2019-02-25T14:14:24.704Z,32.93
2019-02-25T14:16:53.493Z,33.42
2019-02-25T14:19:22.548Z,32.40
2019-02-25T14:21:51.470Z,32.86
2019-02-25T14:24:20.913Z,32.97
2019-02-25T14:26:49.869Z,32.92
2019-02-25T14:29:18.916Z,32.75
2019-02-25T14:31:48.948Z,32.72
2019-02-25T14:34:18.217Z,34.27
2019-02-25T14:36:48.357Z,34.20
2019-02-25T14:39:28.516Z,34.39
2019-02-25T14:41:59.271Z,34.36
2019-02-25T14:44:32.452Z,34.64
2019-02-25T14:47:00.869Z,34.71
2019-02-25T14:49:32.189Z,33.74
2019-02-25T14:52:00.839Z,33.83
2019-02-25T14:54:32.307Z,34.40
2019-02-25T14:57:01.135Z,34.12
2019-02-25T14:59:30.243Z,34.20
2019-02-25T15:02:01.086Z,33.99
2019-02-25T15:04:30.459Z,34.89
2019-02-25T15:06:59.306Z,34.21
2019-02-25T15:09:28.367Z,34.43
2019-02-25T15:11:59.781Z,35.14
2019-02-25T15:14:29.237Z,35.25
2019-02-25T15:16:58.021Z,35.45
2019-02-25T15:19:27.929Z,36.04
2019-02-25T15:21:58.424Z,35.68
2019-02-25T15:24:27.581Z,35.99
2019-02-25T15:26:57.570Z,36.39
2019-02-25T15:29:26.954Z,36.10
2019-02-25T15:31:57.048Z,36.00
2019-02-25T15:34:26.229Z,36.34
2019-02-25T15:36:56.416Z,36.63
2019-02-25T15:39:25.990Z,36.34
2019-02-25T15:41:55.246Z,36.72
2019-02-25T15:44:24.431Z,36.39
2019-02-25T15:46:53.648Z,36.98
2019-02-25T15:49:24.439Z,37.13
2019-02-25T15:51:53.269Z,36.81
2019-02-25T15:54:22.243Z,36.53
2019-02-25T15:56:51.034Z,36.54
2019-02-25T15:59:19.993Z,36.81
2019-02-25T16:01:49.120Z,37.78
2019-02-25T16:04:18.068Z,37.52
2019-02-25T16:06:47.276Z,37.86
2019-02-25T16:09:19.255Z,37.29
2019-02-25T16:11:47.892Z,37.17
2019-02-25T16:14:16.925Z,37.09
2019-02-25T16:16:45.974Z,37.24
2019-02-25T16:19:16.991Z,37.31
2019-02-25T16:21:45.867Z,37.51
2019-02-25T16:24:16.522Z,39.58
2019-02-25T16:26:45.703Z,38.28
2019-02-25T16:29:14.617Z,38.37
2019-02-25T16:31:43.708Z,38.62
2019-02-25T16:34:14.321Z,38.98
2019-02-25T16:36:45.198Z,40.13
2019-02-25T16:39:14.328Z,40.55
2019-02-25T16:41:43.870Z,40.31
2019-02-25T16:44:13.809Z,40.64
2019-02-25T16:46:43.743Z,40.53
2019-02-25T16:49:13.399Z,40.61
2019-02-25T16:51:42.288Z,41.07
2019-02-25T16:54:13.389Z,40.86
2019-02-25T16:56:42.147Z,41.10
2019-02-25T16:59:11.797Z,42.07
2019-02-25T17:01:41.710Z,42.26
2019-02-25T17:04:12.097Z,42.70
2019-02-25T17:06:41.194Z,43.33
2019-02-25T17:09:13.538Z,43.76
2019-02-25T17:11:43.791Z,43.74
2019-02-25T17:14:12.799Z,43.95
2019-02-25T17:16:41.624Z,44.10
2019-02-25T17:19:10.405Z,44.25
2019-02-25T17:21:42.923Z,44.25
2019-02-25T17:24:09.932Z,44.47
2019-02-25T17:26:38.961Z,45.30
2019-02-25T17:29:07.885Z,45.35
2019-02-25T17:31:38.579Z,45.50
2019-02-25T17:34:07.345Z,44.99
2019-02-25T17:36:36.128Z,44.99
2019-02-25T17:39:08.590Z,44.91
2019-02-25T17:41:37.777Z,45.81
2019-02-25T17:44:07.766Z,46.30
2019-02-25T17:46:39.139Z,47.21
2019-02-25T17:49:10.051Z,47.90
2019-02-25T17:51:39.346Z,48.50
2019-02-25T17:54:10.123Z,49.13
2019-02-25T17:56:40.512Z,49.59
2019-02-25T17:59:09.754Z,49.80
2019-02-25T18:01:39.545Z,50.09
2019-02-25T18:04:10.850Z,50.20
2019-02-25T18:06:41.399Z,50.59
2019-02-25T18:09:11.006Z,51.27
2019-02-25T18:11:41.209Z,51.79
2019-02-25T18:14:11.670Z,52.29
2019-02-25T18:16:45.613Z,52.22
2019-02-25T18:19:13.959Z,52.27
2019-02-25T18:21:43.726Z,52.55
2019-02-25T18:24:13.027Z,52.76
2019-02-25T18:26:42.019Z,52.98
2019-02-25T18:29:11.711Z,53.30
2019-02-25T18:31:41.479Z,53.73
2019-02-25T18:34:11.184Z,54.17
2019-02-25T18:36:40.575Z,54.66
2019-02-25T18:39:13.312Z,54.79
2019-02-25T18:41:42.269Z,55.19
2019-02-25T18:44:11.891Z,55.07
2019-02-25T18:46:43.899Z,55.25
2019-02-25T18:49:13.772Z,55.14
2019-02-25T18:51:42.696Z,55.17
2019-02-25T18:54:11.559Z,55.32
2019-02-25T18:56:42.351Z,55.62
2019-02-25T18:59:15.361Z,56.08
2019-02-25T19:01:43.141Z,56.59
2019-02-25T19:04:13.246Z,56.66
2019-02-25T19:06:43.571Z,56.83
2019-02-25T19:09:21.208Z,57.49
2019-02-25T19:11:51.234Z,57.84
2019-02-25T19:14:22.057Z,58.42
2019-02-25T19:16:51.135Z,59.34
2019-02-25T19:19:19.987Z,59.34
2019-02-25T19:21:49.972Z,59.40
2019-02-25T19:24:19.422Z,59.98
2019-02-25T19:26:49.034Z,60.12
2019-02-25T19:29:19.490Z,60.15
2019-02-25T19:31:48.820Z,60.42
2019-02-25T19:34:17.769Z,60.68
2019-02-25T19:36:46.687Z,60.62
2019-02-25T19:39:17.383Z,60.87
2019-02-25T19:41:47.125Z,61.17
2019-02-25T19:44:16.611Z,61.22
2019-02-25T19:46:48.018Z,61.04
2019-02-25T19:49:18.205Z,60.56
2019-02-25T19:51:47.998Z,60.09
2019-02-25T19:54:18.627Z,60.45
2019-02-25T19:56:48.420Z,60.72
2019-02-25T19:59:19.441Z,60.98
2019-02-25T20:01:48.517Z,61.16
2019-02-25T20:04:18.835Z,61.63
2019-02-25T20:06:48.967Z,61.90
2019-02-25T20:09:19.244Z,62.04
2019-02-25T20:11:48.107Z,61.76
2019-02-25T20:14:17.636Z,61.85
2019-02-25T20:16:47.372Z,61.61
2019-02-25T20:19:16.881Z,61.78
2019-02-25T20:21:46.532Z,62.48
2019-02-25T20:24:17.286Z,63.26
2019-02-25T20:26:50.661Z,63.80
2019-02-25T20:29:17.609Z,63.99
2019-02-25T20:31:47.556Z,64.26
2019-02-25T20:34:20.567Z,64.54
2019-02-25T20:36:48.348Z,64.23
2019-02-25T20:39:17.903Z,64.41
2019-02-25T20:41:48.322Z,65.97
2019-02-25T20:44:18.569Z,67.68
2019-02-25T20:46:50.635Z,69.12
2019-02-25T20:49:20.354Z,70.49
2019-02-25T20:51:50.053Z,71.29
2019-02-25T20:54:20.947Z,72.27
2019-02-25T20:56:51.256Z,72.32
2019-02-25T20:59:21.100Z,73.04
2019-02-25T21:01:52.621Z,72.99
2019-02-25T21:04:22.273Z,73.03
2019-02-25T21:06:51.235Z,73.25
2019-02-25T21:09:20.011Z,73.31
2019-02-25T21:11:48.791Z,73.78
2019-02-25T21:14:17.585Z,74.02
2019-02-25T21:16:46.350Z,73.69
2019-02-25T21:19:18.404Z,73.39
2019-02-25T21:21:46.737Z,73.54
2019-02-25T21:24:16.249Z,73.63
2019-02-25T21:26:45.042Z,73.86
2019-02-25T21:29:13.828Z,74.13
2019-02-25T21:31:43.178Z,74.58
2019-02-25T21:34:17.766Z,75.26
2019-02-25T21:36:43.627Z,75.48
2019-02-25T21:39:14.730Z,76.11
2019-02-25T21:41:44.062Z,76.64
2019-02-25T21:44:16.596Z,77.58
2019-02-25T21:46:49.479Z,78.05
2019-02-25T21:49:15.006Z,78.80
2019-02-25T21:51:47.762Z,79.22
2019-02-25T21:54:14.441Z,79.92
2019-02-25T21:56:43.243Z,80.26
2019-02-25T22:02:41.478Z,79.22
2019-02-25T22:05:12.256Z,79.59
2019-02-25T22:07:41.140Z,80.18
2019-02-25T22:10:11.205Z,80.36
2019-02-25T22:12:42.060Z,80.48
2019-02-25T22:15:13.089Z,80.53
2019-02-25T22:17:44.029Z,80.62
2019-02-25T22:20:14.381Z,80.95
2019-02-25T22:22:43.774Z,80.86
2019-02-25T22:25:15.415Z,81.64
2019-02-25T22:27:45.624Z,81.68
2019-02-25T22:30:15.339Z,81.69
2019-02-25T22:32:44.286Z,81.24
2019-02-25T22:35:15.108Z,80.69
2019-02-25T22:37:46.845Z,80.75
2019-02-25T22:40:16.766Z,80.41
2019-02-25T22:42:47.134Z,80.24
2019-02-25T22:45:16.901Z,80.19
2019-02-25T22:47:46.392Z,79.99
2019-02-25T22:50:15.420Z,80.38
2019-02-25T22:52:44.478Z,80.95
2019-02-25T22:55:15.388Z,81.17
2019-02-25T22:57:46.127Z,81.61
2019-02-25T23:00:43.911Z,81.08
2019-02-25T23:03:15.121Z,80.65
2019-02-25T23:05:45.411Z,80.44
2019-02-25T23:08:15.634Z,80.24
2019-02-25T23:10:46.773Z,81.15
2019-02-25T23:13:15.285Z,80.54
2019-02-25T23:15:46.125Z,80.45
2019-02-25T23:18:16.596Z,79.56
2019-02-25T23:20:45.390Z,78.92
2019-02-25T23:23:14.145Z,78.96
2019-02-25T23:25:42.922Z,79.45
2019-02-25T23:28:11.695Z,79.12
2019-02-25T23:30:40.618Z,79.62
2019-02-25T23:33:11.828Z,79.49
2019-02-25T23:35:42.691Z,79.64
2019-02-25T23:38:10.555Z,82.27
2019-02-25T23:40:40.268Z,82.27
2019-02-25T23:43:11.918Z,82.49
2019-02-25T23:45:42.117Z,82.46
2019-02-25T23:48:11.719Z,83.23
2019-02-25T23:50:40.641Z,82.96
2019-02-25T23:53:09.430Z,83.58
2019-02-25T23:55:38.300Z,83.81
2019-02-25T23:58:10.292Z,83.70
